Time;durP1;ratioP1;P1;durP2;ratioP2;P2;SDS_P1;SDS_P2;PMS_P1;PMS_P2;Temp;Humidity;BMP_temperature;BMP_pressure;BME280_temperature;BME280_humidity;BME280_pressure;Samples;Min_cycle;Max_cycle;Signal;HPM_P1;HPM_P2
2023/01/14 00:01:22;;;;;;;21.98;3.00;;;;;;;;;;5020187;28;20120;-74
2023/01/14 00:03:47;;;;;;;22.05;2.38;;;;;;;;;;5020962;28;20112;-73
2023/01/14 00:06:16;;;;;;;25.80;3.08;;;;;;;;;;5020318;28;20121;-73
2023/01/14 00:08:42;;;;;;;33.80;3.88;;;;;;;;;;5022179;28;20038;-74
2023/01/14 00:11:10;;;;;;;21.50;3.22;;;;;;;;;;5019964;28;20064;-73
2023/01/14 00:13:37;;;;;;;17.17;2.65;;;;;;;;;;5021088;28;20052;-72
2023/01/14 00:16:03;;;;;;;20.27;2.30;;;;;;;;;;5017582;28;20041;-73
2023/01/14 00:18:31;;;;;;;21.67;3.10;;;;;;;;;;5030099;28;20057;-73
2023/01/14 00:21:04;;;;;;;20.88;2.50;;;;;;;;;;5017604;28;20037;-73
2023/01/14 00:23:32;;;;;;;25.63;3.08;;;;;;;;;;5016420;28;20556;-72
2023/01/14 00:26:05;;;;;;;36.00;4.25;;;;;;;;;;5026782;28;20064;-72
2023/01/14 00:28:31;;;;;;;16.33;2.35;;;;;;;;;;5015704;28;20049;-73
2023/01/14 00:31:04;;;;;;;32.50;2.88;;;;;;;;;;5022449;28;20481;-73
2023/01/14 00:33:29;;;;;;;14.20;2.17;;;;;;;;;;5025070;28;20151;-72
2023/01/14 00:35:55;;;;;;;16.58;1.88;;;;;;;;;;5027582;28;20481;-73
2023/01/14 00:38:20;;;;;;;19.90;2.72;;;;;;;;;;5024715;28;20136;-74
2023/01/14 00:40:45;;;;;;;24.88;2.78;;;;;;;;;;5004666;28;20026;-73
2023/01/14 00:43:11;;;;;;;18.70;2.25;;;;;;;;;;5022759;28;20041;-72
2023/01/14 00:45:36;;;;;;;18.70;2.38;;;;;;;;;;5027864;28;20052;-72
2023/01/14 00:48:02;;;;;;;29.65;2.88;;;;;;;;;;5028838;28;20041;-73
2023/01/14 00:50:27;;;;;;;21.73;3.60;;;;;;;;;;5023672;28;20041;-73
2023/01/14 00:52:52;;;;;;;12.25;3.03;;;;;;;;;;5016761;28;20034;-73
2023/01/14 00:55:18;;;;;;;21.63;2.00;;;;;;;;;;5022889;28;20033;-73
2023/01/14 00:57:43;;;;;;;12.15;1.90;;;;;;;;;;5031227;28;20366;-73
2023/01/14 01:00:09;;;;;;;19.48;2.65;;;;;;;;;;5020470;28;20056;-73
2023/01/14 01:02:34;;;;;;;24.45;3.25;;;;;;;;;;5026966;28;20469;-73
2023/01/14 01:05:00;;;;;;;15.77;2.58;;;;;;;;;;5028442;28;20044;-73
2023/01/14 01:07:25;;;;;;;17.75;1.98;;;;;;;;;;5026192;28;20034;-73
2023/01/14 01:09:50;;;;;;;18.55;2.47;;;;;;;;;;5016622;28;20478;-76
2023/01/14 01:12:16;;;;;;;27.83;3.28;;;;;;;;;;5024739;28;20118;-72
2023/01/14 01:14:41;;;;;;;18.77;2.70;;;;;;;;;;5018590;28;20050;-73
2023/01/14 01:17:07;;;;;;;11.88;1.85;;;;;;;;;;5030019;28;20094;-72
2023/01/14 01:19:32;;;;;;;14.88;1.80;;;;;;;;;;5021799;28;20545;-73
2023/01/14 01:21:58;;;;;;;6.40;1.60;;;;;;;;;;5027474;28;20512;-73
2023/01/14 01:24:23;;;;;;;16.33;2.35;;;;;;;;;;5020225;28;20026;-73
2023/01/14 01:26:49;;;;;;;10.85;2.08;;;;;;;;;;5020114;28;20066;-73
2023/01/14 01:29:14;;;;;;;7.82;1.48;;;;;;;;;;5023464;28;20041;-73
2023/01/14 01:31:40;;;;;;;13.80;1.92;;;;;;;;;;5024187;28;20044;-72
2023/01/14 01:34:05;;;;;;;17.13;2.22;;;;;;;;;;5027568;28;20109;-73
2023/01/14 01:36:30;;;;;;;14.80;2.42;;;;;;;;;;5032961;28;20396;-72
2023/01/14 01:38:56;;;;;;;12.60;2.15;;;;;;;;;;5024367;28;20034;-73
2023/01/14 01:41:30;;;;;;;12.05;1.92;;;;;;;;;;5024258;28;20056;-73
2023/01/14 01:44:02;;;;;;;12.70;1.63;;;;;;;;;;5044923;28;20045;-73
2023/01/14 01:46:29;;;;;;;9.13;1.50;;;;;;;;;;5016935;28;20038;-72
2023/01/14 01:48:56;;;;;;;7.88;1.45;;;;;;;;;;5024607;28;20041;-72
2023/01/14 01:51:23;;;;;;;17.15;1.52;;;;;;;;;;5017998;28;20072;-73
2023/01/14 01:53:51;;;;;;;15.05;1.90;;;;;;;;;;5021601;28;20045;-72
2023/01/14 01:56:23;;;;;;;14.15;1.98;;;;;;;;;;5018487;28;20042;-73
2023/01/14 01:58:50;;;;;;;8.02;2.28;;;;;;;;;;5022565;28;20029;-72
2023/01/14 02:01:15;;;;;;;10.00;1.48;;;;;;;;;;5022624;28;20136;-73
2023/01/14 02:03:46;;;;;;;7.30;1.52;;;;;;;;;;5023616;28;20064;-72
2023/01/14 02:06:12;;;;;;;9.60;1.20;;;;;;;;;;5022246;28;20041;-73
2023/01/14 02:08:40;;;;;;;8.15;1.40;;;;;;;;;;5028142;28;20145;-73
2023/01/14 02:11:20;;;;;;;6.65;1.25;;;;;;;;;;5027389;28;20029;-73
2023/01/14 02:13:58;;;;;;;8.50;1.08;;;;;;;;;;5034771;28;20378;-73
2023/01/14 02:16:37;;;;;;;6.00;1.05;;;;;;;;;;5022178;28;20038;-73
2023/01/14 02:19:30;;;;;;;7.97;1.00;;;;;;;;;;5015242;28;20045;-73
2023/01/14 02:22:04;;;;;;;3.65;0.80;;;;;;;;;;5028133;28;20650;-74
2023/01/14 02:25:14;;;;;;;6.75;0.93;;;;;;;;;;5013372;28;20037;-73
2023/01/14 02:27:49;;;;;;;8.18;0.82;;;;;;;;;;5015026;28;20034;-73
2023/01/14 02:30:47;;;;;;;9.15;0.98;;;;;;;;;;5024436;28;20053;-73
2023/01/14 02:33:24;;;;;;;6.22;0.80;;;;;;;;;;5017985;28;20038;-73
2023/01/14 02:35:53;;;;;;;2.03;0.77;;;;;;;;;;5022130;28;20038;-72
2023/01/14 02:38:22;;;;;;;6.55;1.15;;;;;;;;;;5019359;28;20366;-74
2023/01/14 02:41:12;;;;;;;6.80;1.00;;;;;;;;;;5020853;28;20034;-73
2023/01/14 02:44:10;;;;;;;11.55;0.90;;;;;;;;;;5014795;28;20499;-73
2023/01/14 02:46:47;;;;;;;4.78;1.00;;;;;;;;;;5026568;28;20048;-73
2023/01/14 02:49:25;;;;;;;2.85;0.70;;;;;;;;;;5021724;28;20046;-73
2023/01/14 02:51:50;;;;;;;3.08;1.00;;;;;;;;;;5032617;28;20052;-73
2023/01/14 02:54:18;;;;;;;3.35;0.50;;;;;;;;;;5022422;28;20067;-73
2023/01/14 02:56:48;;;;;;;3.20;0.70;;;;;;;;;;5025904;28;20484;-73
2023/01/14 02:59:16;;;;;;;2.28;0.70;;;;;;;;;;5025586;28;20477;-73
2023/01/14 03:01:53;;;;;;;5.00;0.52;;;;;;;;;;5021280;28;20502;-73
2023/01/14 03:04:31;;;;;;;3.85;0.55;;;;;;;;;;5024491;28;20087;-73
2023/01/14 03:07:14;;;;;;;5.40;0.70;;;;;;;;;;5015253;28;20474;-73
2023/01/14 03:09:58;;;;;;;11.55;1.02;;;;;;;;;;5024053;28;20056;-73
2023/01/14 03:12:40;;;;;;;1.92;0.80;;;;;;;;;;5020215;28;20402;-73
2023/01/14 03:15:14;;;;;;;4.00;0.85;;;;;;;;;;5017796;28;20033;-73
2023/01/14 03:17:44;;;;;;;4.07;0.60;;;;;;;;;;5017411;28;20042;-73
2023/01/14 03:20:19;;;;;;;2.83;0.65;;;;;;;;;;5015969;28;20037;-73
2023/01/14 03:22:47;;;;;;;3.83;0.60;;;;;;;;;;5047348;28;20044;-73
2023/01/14 03:25:13;;;;;;;3.08;0.65;;;;;;;;;;5012235;28;20061;-73
2023/01/14 03:27:39;;;;;;;1.63;0.50;;;;;;;;;;5027260;28;20038;-73
2023/01/14 03:30:12;;;;;;;1.08;0.45;;;;;;;;;;5024664;28;20504;-74
2023/01/14 03:32:44;;;;;;;5.55;1.17;;;;;;;;;;5019674;28;20037;-73
2023/01/14 03:35:18;;;;;;;3.50;0.75;;;;;;;;;;5027136;28;20401;-73
2023/01/14 03:38:01;;;;;;;6.50;0.57;;;;;;;;;;5027179;28;20544;-73
2023/01/14 03:40:27;;;;;;;2.28;0.52;;;;;;;;;;5019596;28;20120;-73
2023/01/14 03:42:57;;;;;;;1.98;0.50;;;;;;;;;;5017439;28;20034;-73
2023/01/14 03:45:27;;;;;;;2.05;0.40;;;;;;;;;;5018777;28;20053;-73
2023/01/14 03:47:53;;;;;;;5.50;0.77;;;;;;;;;;5022803;28;20124;-73
2023/01/14 03:50:19;;;;;;;4.25;0.60;;;;;;;;;;5024036;28;20499;-73
2023/01/14 03:52:52;;;;;;;7.15;0.70;;;;;;;;;;5024726;28;20056;-73
2023/01/14 03:55:29;;;;;;;1.52;0.63;;;;;;;;;;5017537;28;20052;-73
2023/01/14 03:58:02;;;;;;;4.28;0.73;;;;;;;;;;5017701;28;20038;-73
2023/01/14 04:00:35;;;;;;;9.40;1.00;;;;;;;;;;5032993;28;20045;-72
2023/01/14 04:03:03;;;;;;;3.00;0.80;;;;;;;;;;5023501;28;20406;-73
2023/01/14 04:05:29;;;;;;;2.00;0.50;;;;;;;;;;5024107;28;20049;-73
2023/01/14 04:07:56;;;;;;;4.15;0.90;;;;;;;;;;5024335;28;20045;-75
2023/01/14 04:10:21;;;;;;;4.35;0.57;;;;;;;;;;5028415;28;20131;-73
2023/01/14 04:15:31;;;;;;;2.22;0.68;;;;;;;;;;5037457;28;20052;-73
2023/01/14 04:17:56;;;;;;;2.65;0.60;;;;;;;;;;5021078;28;20392;-74
2023/01/14 04:20:22;;;;;;;6.75;0.85;;;;;;;;;;5025913;28;20500;-73
2023/01/14 04:22:47;;;;;;;6.45;0.63;;;;;;;;;;5029056;28;20477;-75
2023/01/14 04:25:13;;;;;;;3.60;1.27;;;;;;;;;;5026540;28;20038;-74
2023/01/14 04:27:38;;;;;;;0.70;0.40;;;;;;;;;;5025789;28;20116;-74
2023/01/14 04:30:05;;;;;;;6.50;0.80;;;;;;;;;;5020277;28;20034;-73
2023/01/14 04:32:30;;;;;;;3.55;0.65;;;;;;;;;;5021607;28;20073;-73
2023/01/14 04:34:56;;;;;;;1.00;0.43;;;;;;;;;;5025415;28;20504;-74
2023/01/14 04:37:21;;;;;;;3.80;0.70;;;;;;;;;;5026750;28;20026;-73
2023/01/14 04:39:47;;;;;;;6.88;1.00;;;;;;;;;;5020690;28;20065;-73
2023/01/14 04:42:27;;;;;;;2.53;0.43;;;;;;;;;;5015149;28;20052;-74
2023/01/14 04:44:57;;;;;;;6.75;0.73;;;;;;;;;;5027371;28;20083;-73
2023/01/14 04:47:23;;;;;;;4.90;0.98;;;;;;;;;;5027165;28;20529;-73
2023/01/14 04:49:49;;;;;;;2.83;0.60;;;;;;;;;;5022091;28;20046;-73
2023/01/14 04:52:14;;;;;;;5.70;0.90;;;;;;;;;;5016008;28;20030;-73
2023/01/14 04:54:40;;;;;;;2.20;0.55;;;;;;;;;;5023738;28;20041;-73
2023/01/14 04:57:05;;;;;;;3.33;0.68;;;;;;;;;;5020584;28;20030;-73
2023/01/14 04:59:30;;;;;;;2.92;0.60;;;;;;;;;;5030023;28;20053;-73
2023/01/14 05:01:56;;;;;;;6.15;1.20;;;;;;;;;;5026542;28;20041;-74
2023/01/14 05:04:22;;;;;;;2.13;0.60;;;;;;;;;;5020608;28;20025;-74
2023/01/14 05:06:47;;;;;;;3.80;0.73;;;;;;;;;;5020977;28;20386;-74
2023/01/14 05:09:13;;;;;;;3.70;0.85;;;;;;;;;;5024241;28;20385;-73
2023/01/14 05:11:38;;;;;;;2.90;0.65;;;;;;;;;;5027736;28;20034;-72
2023/01/14 05:14:03;;;;;;;3.05;0.45;;;;;;;;;;5022926;28;20057;-73
2023/01/14 05:16:29;;;;;;;4.28;0.63;;;;;;;;;;5021811;28;20052;-73
2023/01/14 05:18:54;;;;;;;8.68;0.90;;;;;;;;;;5030233;28;20038;-74
2023/01/14 05:21:21;;;;;;;3.08;0.85;;;;;;;;;;5028051;28;20112;-74
2023/01/14 05:23:46;;;;;;;2.75;0.75;;;;;;;;;;5018592;28;20038;-73
2023/01/14 05:26:12;;;;;;;4.70;0.70;;;;;;;;;;5029791;28;20489;-73
2023/01/14 05:28:38;;;;;;;2.85;1.10;;;;;;;;;;5023955;28;20034;-73
2023/01/14 05:31:04;;;;;;;3.30;0.77;;;;;;;;;;5025107;28;20048;-73
2023/01/14 05:33:29;;;;;;;1.10;0.52;;;;;;;;;;5037087;28;20490;-73
2023/01/14 05:35:56;;;;;;;3.63;0.63;;;;;;;;;;5022951;28;20037;-73
2023/01/14 05:38:21;;;;;;;2.38;0.80;;;;;;;;;;5018857;28;20133;-73
2023/01/14 05:40:47;;;;;;;2.50;0.60;;;;;;;;;;5021446;28;20522;-73
2023/01/14 05:46:05;;;;;;;1.35;0.30;;;;;;;;;;5023286;28;20421;-73
2023/01/14 05:48:30;;;;;;;5.22;0.82;;;;;;;;;;5022165;28;20470;-72
2023/01/14 05:50:57;;;;;;;1.98;0.40;;;;;;;;;;5018105;28;20076;-74
2023/01/14 05:53:23;;;;;;;5.22;0.60;;;;;;;;;;5021950;28;20026;-74
2023/01/14 05:55:49;;;;;;;2.38;0.57;;;;;;;;;;5033479;28;20453;-74
2023/01/14 05:58:16;;;;;;;3.78;0.60;;;;;;;;;;5024155;28;20076;-73
2023/01/14 06:06:25;;;;;;;1.45;0.32;;;;;;;;;;5023715;28;20127;-74
2023/01/14 06:08:54;;;;;;;0.80;0.40;;;;;;;;;;5026765;28;20036;-73
2023/01/14 06:11:20;;;;;;;3.28;0.60;;;;;;;;;;5021652;28;20426;-73
2023/01/14 06:13:47;;;;;;;2.47;0.40;;;;;;;;;;5013014;28;20040;-73
2023/01/14 06:16:13;;;;;;;3.22;0.43;;;;;;;;;;5030546;28;20029;-73
2023/01/14 06:18:41;;;;;;;1.45;0.43;;;;;;;;;;5030058;28;20091;-74
2023/01/14 06:21:08;;;;;;;1.02;0.40;;;;;;;;;;5030611;28;20064;-74
2023/01/14 06:23:34;;;;;;;2.92;0.40;;;;;;;;;;5028387;28;20125;-73
2023/01/14 06:25:59;;;;;;;0.68;0.30;;;;;;;;;;5019015;28;20083;-75
2023/01/14 06:28:26;;;;;;;1.17;0.50;;;;;;;;;;5017969;28;20173;-74
2023/01/14 06:30:52;;;;;;;1.70;0.45;;;;;;;;;;5023771;28;20040;-73
2023/01/14 06:33:17;;;;;;;2.25;0.65;;;;;;;;;;5029845;28;20041;-73
2023/01/14 06:35:44;;;;;;;1.90;0.40;;;;;;;;;;5033087;28;20061;-73
2023/01/14 06:38:11;;;;;;;0.22;0.20;;;;;;;;;;5031002;28;20105;-74
2023/01/14 06:40:38;;;;;;;2.20;0.50;;;;;;;;;;5030444;28;20033;-73
2023/01/14 06:43:03;;;;;;;0.82;0.35;;;;;;;;;;5016371;28;20041;-73
2023/01/14 06:45:29;;;;;;;0.57;0.22;;;;;;;;;;5016093;28;20034;-73
2023/01/14 06:47:54;;;;;;;1.92;0.30;;;;;;;;;;5019087;28;20048;-73
2023/01/14 06:50:19;;;;;;;1.17;0.50;;;;;;;;;;5027979;28;20053;-73
2023/01/14 06:52:45;;;;;;;0.85;0.40;;;;;;;;;;5022927;28;20042;-73
2023/01/14 06:55:11;;;;;;;0.77;0.15;;;;;;;;;;5026101;28;20045;-73
2023/01/14 06:57:36;;;;;;;0.45;0.30;;;;;;;;;;5019722;28;20042;-73
2023/01/14 07:00:03;;;;;;;0.52;0.30;;;;;;;;;;5031037;28;20029;-73
2023/01/14 07:02:28;;;;;;;0.82;0.30;;;;;;;;;;5023688;28;20110;-73
2023/01/14 07:04:53;;;;;;;1.58;0.30;;;;;;;;;;5016325;28;20416;-73
2023/01/14 07:07:19;;;;;;;0.77;0.40;;;;;;;;;;5027514;28;20046;-73
2023/01/14 07:09:44;;;;;;;0.43;0.30;;;;;;;;;;5025601;28;20049;-73
2023/01/14 07:12:10;;;;;;;2.83;0.40;;;;;;;;;;5023522;28;20111;-74
2023/01/14 07:14:35;;;;;;;0.17;0.17;;;;;;;;;;5017559;28;20119;-73
2023/01/14 07:17:01;;;;;;;0.73;0.20;;;;;;;;;;5017821;28;20423;-74
2023/01/14 07:19:27;;;;;;;0.52;0.35;;;;;;;;;;5031340;28;20037;-74
2023/01/14 07:21:52;;;;;;;1.27;0.52;;;;;;;;;;5021759;28;20025;-74
2023/01/14 07:24:18;;;;;;;1.30;0.57;;;;;;;;;;5023061;28;20037;-73
2023/01/14 07:26:43;;;;;;;1.60;0.60;;;;;;;;;;5020783;28;20032;-75
2023/01/14 07:29:09;;;;;;;0.82;0.30;;;;;;;;;;5024015;28;20048;-74
2023/01/14 07:31:35;;;;;;;1.08;0.40;;;;;;;;;;5020110;28;20401;-74
2023/01/14 07:34:00;;;;;;;0.32;0.25;;;;;;;;;;5021364;28;20029;-74
2023/01/14 07:36:25;;;;;;;0.22;0.22;;;;;;;;;;5022571;28;20867;-74
2023/01/14 07:38:51;;;;;;;0.45;0.30;;;;;;;;;;5017351;28;20038;-73
2023/01/14 07:41:18;;;;;;;0.22;0.20;;;;;;;;;;5023643;28;20064;-75
2023/01/14 07:43:44;;;;;;;0.30;0.22;;;;;;;;;;5016441;28;20045;-73
2023/01/14 07:46:09;;;;;;;0.40;0.20;;;;;;;;;;5021523;28;20037;-74
2023/01/14 07:48:35;;;;;;;1.02;0.22;;;;;;;;;;5016493;28;20540;-73
2023/01/14 07:51:02;;;;;;;2.28;0.17;;;;;;;;;;5029286;28;20057;-74
2023/01/14 07:53:28;;;;;;;0.63;0.20;;;;;;;;;;5017610;28;20103;-73
2023/01/14 07:55:54;;;;;;;0.30;0.20;;;;;;;;;;5020629;28;20419;-73
2023/01/14 07:58:21;;;;;;;0.20;0.20;;;;;;;;;;5015255;28;20053;-74
2023/01/14 08:00:47;;;;;;;1.13;0.25;;;;;;;;;;5018130;28;20042;-73
2023/01/14 08:03:13;;;;;;;0.10;0.10;;;;;;;;;;5016907;28;20049;-73
2023/01/14 08:05:38;;;;;;;0.10;0.10;;;;;;;;;;5022243;28;20034;-73
2023/01/14 08:08:04;;;;;;;0.20;0.20;;;;;;;;;;5016867;28;20037;-73
2023/01/14 08:10:29;;;;;;;0.95;0.20;;;;;;;;;;5025679;28;20065;-72
2023/01/14 08:12:54;;;;;;;0.40;0.15;;;;;;;;;;5020559;28;20037;-73
2023/01/14 08:15:20;;;;;;;0.73;0.20;;;;;;;;;;5013716;28;20045;-73
2023/01/14 08:17:45;;;;;;;0.30;0.10;;;;;;;;;;5023092;28;20041;-73
2023/01/14 08:20:11;;;;;;;0.10;0.10;;;;;;;;;;5026452;28;20033;-74
2023/01/14 08:22:37;;;;;;;0.20;0.20;;;;;;;;;;5024554;28;20045;-74
2023/01/14 08:25:04;;;;;;;1.67;0.30;;;;;;;;;;5021518;28;20032;-74
2023/01/14 08:27:29;;;;;;;0.45;0.30;;;;;;;;;;5022480;28;20491;-73
2023/01/14 08:29:55;;;;;;;3.63;0.45;;;;;;;;;;5025398;28;20037;-74
2023/01/14 08:32:20;;;;;;;0.43;0.30;;;;;;;;;;5027768;28;20041;-74
2023/01/14 08:34:46;;;;;;;0.98;0.40;;;;;;;;;;5024602;28;20500;-73
2023/01/14 08:37:11;;;;;;;2.25;0.55;;;;;;;;;;5019910;28;20444;-73
2023/01/14 08:39:37;;;;;;;2.28;0.55;;;;;;;;;;5032701;28;20037;-73
2023/01/14 08:42:03;;;;;;;1.95;0.82;;;;;;;;;;5026848;28;20029;-74
2023/01/14 08:44:29;;;;;;;1.50;0.60;;;;;;;;;;5018394;28;20504;-73
2023/01/14 08:46:54;;;;;;;1.85;0.70;;;;;;;;;;5023988;28;20064;-73
2023/01/14 08:49:19;;;;;;;2.70;0.70;;;;;;;;;;5020342;28;20129;-73
2023/01/14 08:51:45;;;;;;;3.10;0.90;;;;;;;;;;5024867;28;20061;-72
2023/01/14 08:54:10;;;;;;;2.05;1.00;;;;;;;;;;5023692;28;20370;-73
2023/01/14 08:56:36;;;;;;;2.10;1.13;;;;;;;;;;5026513;28;20114;-73
2023/01/14 08:59:01;;;;;;;1.55;0.95;;;;;;;;;;5020815;28;20029;-74
2023/01/14 09:01:27;;;;;;;2.55;1.20;;;;;;;;;;5023247;28;20131;-74
2023/01/14 09:03:57;;;;;;;3.72;1.65;;;;;;;;;;5017142;28;20478;-74
2023/01/14 09:06:22;;;;;;;6.63;1.40;;;;;;;;;;5026806;28;20045;-74
2023/01/14 09:17:06;;;;;;;4.55;1.70;;;;;;;;;;5016571;28;20068;-74
2023/01/14 09:19:48;;;;;;;7.63;1.88;;;;;;;;;;5018462;28;20038;-74
2023/01/14 09:22:18;;;;;;;5.40;1.83;;;;;;;;;;5014960;28;20037;-74
2023/01/14 09:24:43;;;;;;;2.90;1.55;;;;;;;;;;5014270;28;20486;-74
2023/01/14 09:27:09;;;;;;;3.15;1.17;;;;;;;;;;5024467;28;20079;-74
2023/01/14 09:29:34;;;;;;;4.60;1.30;;;;;;;;;;5015298;28;20034;-76
2023/01/14 09:32:00;;;;;;;4.47;1.30;;;;;;;;;;5025016;28;20075;-74
2023/01/14 09:34:25;;;;;;;3.72;1.60;;;;;;;;;;5015148;28;20037;-74
2023/01/14 09:36:53;;;;;;;4.30;1.52;;;;;;;;;;5018858;28;20030;-75
2023/01/14 09:39:18;;;;;;;6.85;1.92;;;;;;;;;;5021572;28;20436;-75
2023/01/14 09:42:23;;;;;;;10.10;2.00;;;;;;;;;;5021596;28;20033;-74
2023/01/14 09:44:51;;;;;;;6.93;2.00;;;;;;;;;;5010750;28;20096;-74
2023/01/14 09:47:17;;;;;;;10.90;2.20;;;;;;;;;;5026449;28;20104;-74
2023/01/14 09:49:43;;;;;;;5.35;1.80;;;;;;;;;;5026340;28;20741;-73
2023/01/14 09:52:22;;;;;;;3.00;1.50;;;;;;;;;;5022119;28;20121;-73
2023/01/14 09:55:16;;;;;;;6.65;1.75;;;;;;;;;;5020596;28;20036;-74
2023/01/14 09:57:47;;;;;;;4.35;0.77;;;;;;;;;;5030782;28;20496;-74
2023/01/14 10:00:15;;;;;;;3.47;0.90;;;;;;;;;;5022507;28;20034;-74
2023/01/14 10:02:46;;;;;;;1.67;0.40;;;;;;;;;;5026283;28;20111;-74
2023/01/14 10:05:19;;;;;;;1.25;0.50;;;;;;;;;;5002903;28;20029;-74
2023/01/14 10:07:44;;;;;;;1.38;0.60;;;;;;;;;;5016857;28;20038;-74
2023/01/14 10:10:18;;;;;;;1.05;0.40;;;;;;;;;;5024590;28;20029;-74
2023/01/14 10:12:44;;;;;;;2.70;0.90;;;;;;;;;;5013325;28;20038;-73
2023/01/14 10:15:19;;;;;;;1.80;0.82;;;;;;;;;;5022413;28;20120;-75
2023/01/14 10:17:52;;;;;;;4.70;0.70;;;;;;;;;;5015670;28;20095;-75
2023/01/14 10:20:26;;;;;;;0.70;0.50;;;;;;;;;;5006871;28;20092;-74
2023/01/14 10:23:12;;;;;;;1.10;0.70;;;;;;;;;;5033048;28;20033;-74
2023/01/14 10:25:37;;;;;;;0.88;0.60;;;;;;;;;;5018684;28;20091;-74
2023/01/14 10:28:04;;;;;;;1.35;0.60;;;;;;;;;;5026007;28;20042;-74
2023/01/14 10:30:32;;;;;;;0.80;0.40;;;;;;;;;;5020210;28;20113;-74
2023/01/14 10:32:59;;;;;;;0.80;0.50;;;;;;;;;;5019437;28;20037;-74
2023/01/14 10:35:35;;;;;;;4.72;0.52;;;;;;;;;;5011888;28;20049;-74
2023/01/14 10:38:01;;;;;;;1.17;0.50;;;;;;;;;;5047440;28;20033;-74
2023/01/14 10:40:28;;;;;;;3.60;0.50;;;;;;;;;;5023608;28;21649;-73
2023/01/14 10:42:55;;;;;;;2.63;0.65;;;;;;;;;;5025102;28;20038;-74
2023/01/14 10:45:20;;;;;;;0.65;0.50;;;;;;;;;;5022200;28;20056;-74
2023/01/14 10:47:48;;;;;;;0.75;0.70;;;;;;;;;;5020203;28;20505;-73
2023/01/14 10:50:17;;;;;;;1.73;0.50;;;;;;;;;;5019528;28;20072;-74
2023/01/14 10:52:43;;;;;;;5.90;1.00;;;;;;;;;;5053774;28;20473;-74
2023/01/14 10:55:13;;;;;;;3.75;0.50;;;;;;;;;;5026408;28;20046;-73
2023/01/14 10:57:51;;;;;;;0.63;0.45;;;;;;;;;;5021710;28;20045;-73
2023/01/14 11:00:31;;;;;;;2.05;0.60;;;;;;;;;;5017705;28;20045;-74
2023/01/14 11:02:57;;;;;;;0.57;0.40;;;;;;;;;;5028147;28;20034;-74
2023/01/14 11:05:34;;;;;;;0.55;0.43;;;;;;;;;;5017819;28;20389;-75
2023/01/14 11:08:18;;;;;;;1.95;0.60;;;;;;;;;;5016066;28;20112;-73
2023/01/14 11:10:43;;;;;;;2.13;0.93;;;;;;;;;;5025116;28;20037;-74
2023/01/14 11:13:36;;;;;;;1.38;0.73;;;;;;;;;;5028884;28;20171;-74
2023/01/14 11:16:02;;;;;;;3.47;1.00;;;;;;;;;;5031652;28;20052;-73
2023/01/14 11:18:30;;;;;;;0.68;0.50;;;;;;;;;;5022227;28;20482;-73
2023/01/14 11:21:11;;;;;;;1.88;0.80;;;;;;;;;;5022411;28;20052;-75
2023/01/14 11:23:44;;;;;;;3.13;1.08;;;;;;;;;;5022006;28;20045;-73
2023/01/14 11:26:12;;;;;;;3.35;0.70;;;;;;;;;;5007802;28;20470;-74
2023/01/14 11:28:42;;;;;;;2.17;1.17;;;;;;;;;;5024735;28;20401;-73
2023/01/14 11:31:08;;;;;;;2.95;1.00;;;;;;;;;;5021649;28;20037;-74
2023/01/14 11:33:34;;;;;;;1.48;0.80;;;;;;;;;;5025242;28;20029;-73
2023/01/14 11:36:01;;;;;;;1.77;0.80;;;;;;;;;;5026366;28;20468;-73
2023/01/14 11:38:27;;;;;;;1.75;0.68;;;;;;;;;;5026172;28;20038;-73
2023/01/14 11:44:01;;;;;;;3.15;0.80;;;;;;;;;;5017293;28;20045;-74
2023/01/14 11:46:27;;;;;;;3.92;0.70;;;;;;;;;;5025450;28;20152;-73
2023/01/14 11:49:02;;;;;;;3.30;0.70;;;;;;;;;;5014264;28;20046;-74
2023/01/14 11:51:29;;;;;;;2.55;1.05;;;;;;;;;;5026200;28;20160;-74
2023/01/14 11:53:56;;;;;;;2.92;0.80;;;;;;;;;;5020192;28;20034;-74
2023/01/14 11:56:27;;;;;;;4.80;0.88;;;;;;;;;;5027328;28;20043;-74
2023/01/14 11:58:53;;;;;;;2.33;0.93;;;;;;;;;;5018239;28;20041;-73
2023/01/14 12:01:26;;;;;;;3.13;1.00;;;;;;;;;;5019954;28;20104;-73
2023/01/14 12:04:00;;;;;;;3.10;0.90;;;;;;;;;;5021653;28;20457;-73
2023/01/14 12:06:50;;;;;;;2.00;0.82;;;;;;;;;;5012938;28;20181;-74
2023/01/14 12:09:27;;;;;;;2.13;0.80;;;;;;;;;;5010056;28;20076;-73
2023/01/14 12:12:00;;;;;;;2.40;0.93;;;;;;;;;;5019316;28;20057;-73
2023/01/14 12:17:20;;;;;;;1.05;0.60;;;;;;;;;;5014821;28;20045;-73
2023/01/14 12:19:49;;;;;;;3.13;0.68;;;;;;;;;;5015850;28;20038;-74
2023/01/14 12:22:29;;;;;;;1.42;0.52;;;;;;;;;;5019741;28;20148;-74
2023/01/14 12:24:57;;;;;;;5.10;0.77;;;;;;;;;;5017675;28;20029;-73
2023/01/14 12:27:48;;;;;;;3.00;0.80;;;;;;;;;;5022271;28;20034;-74
2023/01/14 12:30:26;;;;;;;1.15;0.57;;;;;;;;;;5015450;28;20485;-74
2023/01/14 12:33:01;;;;;;;1.88;0.50;;;;;;;;;;5020070;28;20065;-74
2023/01/14 12:35:30;;;;;;;0.75;0.50;;;;;;;;;;5014223;28;20038;-73
2023/01/14 12:38:00;;;;;;;2.47;0.40;;;;;;;;;;5019192;28;20037;-74
2023/01/14 12:46:13;;;;;;;0.63;0.52;;;;;;;;;;5014284;28;20049;-74
2023/01/14 12:48:39;;;;;;;0.70;0.40;;;;;;;;;;5015158;28;20045;-75
2023/01/14 12:51:24;;;;;;;1.05;0.50;;;;;;;;;;5018891;28;20134;-74
2023/01/14 12:53:59;;;;;;;1.02;0.40;;;;;;;;;;5027693;28;20049;-74
2023/01/14 12:56:30;;;;;;;0.95;0.40;;;;;;;;;;5037933;28;20390;-74
2023/01/14 12:58:59;;;;;;;0.47;0.30;;;;;;;;;;5021501;28;20052;-73
2023/01/14 13:01:28;;;;;;;1.08;0.30;;;;;;;;;;5053839;28;20057;-73
2023/01/14 13:03:57;;;;;;;0.20;0.20;;;;;;;;;;5018404;28;20029;-73
2023/01/14 13:06:29;;;;;;;0.22;0.22;;;;;;;;;;5021577;28;20040;-73
2023/01/14 13:08:56;;;;;;;0.20;0.20;;;;;;;;;;5006032;28;20034;-74
2023/01/14 13:11:27;;;;;;;0.40;0.30;;;;;;;;;;5018523;28;20045;-74
2023/01/14 13:13:55;;;;;;;0.20;0.20;;;;;;;;;;5011772;28;20038;-74
2023/01/14 13:16:36;;;;;;;0.45;0.30;;;;;;;;;;5019572;28;20034;-74
2023/01/14 13:19:26;;;;;;;0.30;0.30;;;;;;;;;;5028303;28;20065;-73
2023/01/14 13:22:24;;;;;;;0.25;0.25;;;;;;;;;;5033063;28;20637;-74
2023/01/14 13:25:10;;;;;;;0.40;0.30;;;;;;;;;;4996956;28;20053;-73
2023/01/14 13:27:38;;;;;;;0.55;0.30;;;;;;;;;;5025427;28;20038;-74
2023/01/14 13:30:18;;;;;;;2.15;0.60;;;;;;;;;;5005782;28;20040;-77
2023/01/14 13:33:06;;;;;;;2.55;0.57;;;;;;;;;;5013870;28;20130;-73
2023/01/14 13:35:36;;;;;;;1.58;0.50;;;;;;;;;;5021947;28;20049;-73
2023/01/14 13:38:04;;;;;;;0.95;0.35;;;;;;;;;;5017978;28;20040;-74
2023/01/14 13:40:36;;;;;;;2.05;0.40;;;;;;;;;;5027170;28;20348;-74
2023/01/14 13:43:24;;;;;;;2.33;0.75;;;;;;;;;;5022783;28;20120;-74
2023/01/14 13:45:55;;;;;;;1.38;0.50;;;;;;;;;;5023866;28;20030;-74
2023/01/14 13:48:26;;;;;;;1.70;0.60;;;;;;;;;;5007877;28;20053;-74
2023/01/14 13:50:52;;;;;;;4.15;0.80;;;;;;;;;;5038469;28;20041;-74
2023/01/14 13:53:17;;;;;;;4.28;0.52;;;;;;;;;;5025580;28;20496;-74
2023/01/14 13:55:57;;;;;;;4.13;0.70;;;;;;;;;;5019541;28;20462;-73
2023/01/14 13:58:31;;;;;;;3.08;0.93;;;;;;;;;;5026378;28;20038;-73
2023/01/14 14:01:19;;;;;;;3.55;0.70;;;;;;;;;;5024255;28;20037;-73
2023/01/14 14:03:44;;;;;;;5.13;1.05;;;;;;;;;;5017554;28;20068;-73
2023/01/14 14:06:19;;;;;;;2.33;0.65;;;;;;;;;;5020876;28;20079;-74
2023/01/14 14:08:49;;;;;;;2.78;0.70;;;;;;;;;;5021524;28;20125;-73
2023/01/14 14:11:18;;;;;;;5.28;0.75;;;;;;;;;;5022231;28;20036;-74
2023/01/14 14:16:58;;;;;;;3.88;0.88;;;;;;;;;;5023292;28;20531;-74
2023/01/14 14:19:24;;;;;;;;;;;;;;;;;;5020256;28;20056;-76
2023/01/14 14:22:05;;;;;;;8.90;0.95;;;;;;;;;;5028022;28;19953;-74
2023/01/14 14:24:55;;;;;;;9.70;0.80;;;;;;;;;;5017902;28;20101;-73
2023/01/14 14:27:37;;;;;;;5.18;0.80;;;;;;;;;;5020801;28;20038;-73
2023/01/14 14:30:07;;;;;;;4.00;0.80;;;;;;;;;;5020659;28;20080;-73
2023/01/14 14:32:36;;;;;;;3.28;0.75;;;;;;;;;;5014420;28;20046;-73
2023/01/14 14:35:19;;;;;;;8.50;1.40;;;;;;;;;;5024872;28;20038;-73
2023/01/14 14:37:50;;;;;;;6.50;1.10;;;;;;;;;;5023196;28;20128;-75
2023/01/14 14:40:27;;;;;;;7.78;1.05;;;;;;;;;;5021635;28;20387;-73
2023/01/14 14:42:53;;;;;;;3.88;0.90;;;;;;;;;;5025698;28;20541;-73
2023/01/14 14:45:34;;;;;;;6.65;1.20;;;;;;;;;;5014002;28;20117;-73
2023/01/14 14:48:01;;;;;;;5.55;0.95;;;;;;;;;;5020164;28;20120;-73
2023/01/14 14:50:31;;;;;;;8.43;1.55;;;;;;;;;;5009790;28;20050;-74
2023/01/14 14:52:58;;;;;;;3.97;0.88;;;;;;;;;;5027503;28;20056;-74
2023/01/14 14:55:26;;;;;;;3.55;1.30;;;;;;;;;;5021416;28;20048;-74
2023/01/14 14:57:52;;;;;;;4.38;1.60;;;;;;;;;;5019577;28;20100;-73
2023/01/14 15:00:19;;;;;;;3.28;0.90;;;;;;;;;;5015293;28;20038;-73
2023/01/14 15:02:46;;;;;;;6.80;1.23;;;;;;;;;;5024910;28;20034;-73
2023/01/14 15:05:29;;;;;;;6.20;0.88;;;;;;;;;;5022127;28;20042;-73
2023/01/14 15:07:57;;;;;;;8.63;1.20;;;;;;;;;;5021218;28;20045;-73
2023/01/14 15:10:24;;;;;;;4.93;1.00;;;;;;;;;;5020276;28;20092;-74
2023/01/14 15:12:50;;;;;;;4.50;1.00;;;;;;;;;;5021845;28;20033;-73
2023/01/14 15:15:25;;;;;;;7.20;1.65;;;;;;;;;;5022533;28;20124;-74
2023/01/14 15:17:58;;;;;;;4.25;1.25;;;;;;;;;;5027050;28;20073;-73
2023/01/14 15:20:23;;;;;;;5.03;1.20;;;;;;;;;;5030944;28;20037;-73
2023/01/14 15:22:49;;;;;;;9.68;1.30;;;;;;;;;;5011129;28;20112;-73
2023/01/14 15:25:17;;;;;;;8.70;0.90;;;;;;;;;;5021289;28;20045;-74
2023/01/14 15:27:45;;;;;;;7.72;0.90;;;;;;;;;;5017432;28;20037;-73
2023/01/14 15:30:25;;;;;;;9.23;1.05;;;;;;;;;;5030019;28;20370;-73